sensor_id;sensor_type;location;lat;lon;timestamp;P1;durP1;ratioP1;P2;durP2;ratioP2
21339;SDS011;10828;47.064;15.422;2022-09-25T00:00:53;13.03;;;6.10;;
21339;SDS011;10828;47.064;15.422;2022-09-25T00:03:19;9.77;;;6.17;;
21339;SDS011;10828;47.064;15.422;2022-09-25T00:05:45;10.13;;;6.00;;
21339;SDS011;10828;47.064;15.422;2022-09-25T00:08:12;11.00;;;6.43;;
21339;SDS011;10828;47.064;15.422;2022-09-25T00:10:39;11.60;;;6.30;;
21339;SDS011;10828;47.064;15.422;2022-09-25T00:13:06;9.93;;;5.90;;
21339;SDS011;10828;47.064;15.422;2022-09-25T00:15:32;13.87;;;6.40;;
21339;SDS011;10828;47.064;15.422;2022-09-25T00:17:58;12.83;;;6.50;;
21339;SDS011;10828;47.064;15.422;2022-09-25T00:20:24;12.80;;;6.20;;
21339;SDS011;10828;47.064;15.422;2022-09-25T00:22:50;11.57;;;6.40;;
21339;SDS011;10828;47.064;15.422;2022-09-25T00:25:17;9.27;;;6.03;;
21339;SDS011;10828;47.064;15.422;2022-09-25T00:27:44;11.60;;;5.93;;
21339;SDS011;10828;47.064;15.422;2022-09-25T00:30:11;10.63;;;5.90;;
21339;SDS011;10828;47.064;15.422;2022-09-25T00:32:37;12.77;;;6.10;;
21339;SDS011;10828;47.064;15.422;2022-09-25T00:35:03;12.27;;;5.93;;
21339;SDS011;10828;47.064;15.422;2022-09-25T00:37:31;10.77;;;5.87;;
21339;SDS011;10828;47.064;15.422;2022-09-25T00:39:57;12.70;;;6.53;;
21339;SDS011;10828;47.064;15.422;2022-09-25T00:42:23;9.77;;;5.80;;
21339;SDS011;10828;47.064;15.422;2022-09-25T00:44:59;13.60;;;5.80;;
21339;SDS011;10828;47.064;15.422;2022-09-25T00:50:12;10.37;;;5.70;;
21339;SDS011;10828;47.064;15.422;2022-09-25T00:52:40;10.13;;;5.80;;
21339;SDS011;10828;47.064;15.422;2022-09-25T00:55:06;10.53;;;5.70;;
21339;SDS011;10828;47.064;15.422;2022-09-25T00:57:34;12.80;;;6.23;;
21339;SDS011;10828;47.064;15.422;2022-09-25T01:00:04;10.03;;;5.73;;
21339;SDS011;10828;47.064;15.422;2022-09-25T01:02:32;11.00;;;6.13;;
21339;SDS011;10828;47.064;15.422;2022-09-25T01:05:03;10.47;;;5.70;;
21339;SDS011;10828;47.064;15.422;2022-09-25T01:07:33;10.47;;;6.00;;
21339;SDS011;10828;47.064;15.422;2022-09-25T01:10:02;11.50;;;6.00;;
21339;SDS011;10828;47.064;15.422;2022-09-25T01:12:29;9.60;;;5.53;;
21339;SDS011;10828;47.064;15.422;2022-09-25T01:14:55;12.30;;;6.27;;
21339;SDS011;10828;47.064;15.422;2022-09-25T01:25:32;11.23;;;5.47;;
21339;SDS011;10828;47.064;15.422;2022-09-25T01:30:04;10.03;;;6.00;;
21339;SDS011;10828;47.064;15.422;2022-09-25T01:42:36;9.00;;;5.80;;
21339;SDS011;10828;47.064;15.422;2022-09-25T01:45:05;9.43;;;5.40;;
21339;SDS011;10828;47.064;15.422;2022-09-25T01:47:34;9.47;;;5.77;;
21339;SDS011;10828;47.064;15.422;2022-09-25T01:50:07;10.43;;;5.73;;
21339;SDS011;10828;47.064;15.422;2022-09-25T01:52:38;10.20;;;5.80;;
21339;SDS011;10828;47.064;15.422;2022-09-25T01:55:07;8.50;;;5.67;;
21339;SDS011;10828;47.064;15.422;2022-09-25T01:57:52;8.83;;;5.33;;
21339;SDS011;10828;47.064;15.422;2022-09-25T02:00:21;8.70;;;5.67;;
21339;SDS011;10828;47.064;15.422;2022-09-25T02:02:49;10.13;;;5.90;;
21339;SDS011;10828;47.064;15.422;2022-09-25T02:05:21;10.27;;;6.10;;
21339;SDS011;10828;47.064;15.422;2022-09-25T02:07:52;13.60;;;6.20;;
21339;SDS011;10828;47.064;15.422;2022-09-25T02:13:15;12.20;;;5.53;;
21339;SDS011;10828;47.064;15.422;2022-09-25T02:15:46;11.97;;;5.70;;
21339;SDS011;10828;47.064;15.422;2022-09-25T02:18:14;9.50;;;5.73;;
21339;SDS011;10828;47.064;15.422;2022-09-25T02:21:01;11.10;;;6.10;;
21339;SDS011;10828;47.064;15.422;2022-09-25T02:26:10;9.83;;;5.73;;
21339;SDS011;10828;47.064;15.422;2022-09-25T02:28:41;11.23;;;5.40;;
21339;SDS011;10828;47.064;15.422;2022-09-25T02:31:09;9.77;;;5.90;;
21339;SDS011;10828;47.064;15.422;2022-09-25T02:33:36;12.47;;;6.37;;
21339;SDS011;10828;47.064;15.422;2022-09-25T02:36:15;9.60;;;6.10;;
21339;SDS011;10828;47.064;15.422;2022-09-25T02:38:43;10.97;;;6.07;;
21339;SDS011;10828;47.064;15.422;2022-09-25T02:48:58;10.17;;;6.33;;
21339;SDS011;10828;47.064;15.422;2022-09-25T02:51:32;13.20;;;6.93;;
21339;SDS011;10828;47.064;15.422;2022-09-25T02:54:16;12.27;;;7.20;;
21339;SDS011;10828;47.064;15.422;2022-09-25T02:59:32;12.03;;;6.90;;
21339;SDS011;10828;47.064;15.422;2022-09-25T03:01:59;12.40;;;7.37;;
21339;SDS011;10828;47.064;15.422;2022-09-25T03:04:27;15.27;;;8.00;;
21339;SDS011;10828;47.064;15.422;2022-09-25T03:06:53;16.00;;;7.57;;
21339;SDS011;10828;47.064;15.422;2022-09-25T03:09:21;13.17;;;7.43;;
21339;SDS011;10828;47.064;15.422;2022-09-25T03:11:47;14.93;;;8.10;;
21339;SDS011;10828;47.064;15.422;2022-09-25T03:14:13;14.70;;;7.10;;
21339;SDS011;10828;47.064;15.422;2022-09-25T03:16:46;11.83;;;6.67;;
21339;SDS011;10828;47.064;15.422;2022-09-25T03:19:13;11.50;;;6.80;;
21339;SDS011;10828;47.064;15.422;2022-09-25T03:21:40;13.47;;;7.50;;
21339;SDS011;10828;47.064;15.422;2022-09-25T03:24:06;11.77;;;7.10;;
21339;SDS011;10828;47.064;15.422;2022-09-25T03:26:32;14.53;;;6.77;;
21339;SDS011;10828;47.064;15.422;2022-09-25T03:28:58;12.53;;;7.47;;
21339;SDS011;10828;47.064;15.422;2022-09-25T03:31:26;12.83;;;6.77;;
21339;SDS011;10828;47.064;15.422;2022-09-25T03:33:53;17.17;;;7.67;;
21339;SDS011;10828;47.064;15.422;2022-09-25T03:36:19;14.37;;;7.67;;
21339;SDS011;10828;47.064;15.422;2022-09-25T03:38:48;11.70;;;6.97;;
21339;SDS011;10828;47.064;15.422;2022-09-25T03:41:15;12.47;;;7.20;;
21339;SDS011;10828;47.064;15.422;2022-09-25T03:43:43;11.70;;;7.17;;
21339;SDS011;10828;47.064;15.422;2022-09-25T03:46:14;11.40;;;7.00;;
21339;SDS011;10828;47.064;15.422;2022-09-25T03:48:40;11.70;;;7.20;;
21339;SDS011;10828;47.064;15.422;2022-09-25T03:51:16;12.80;;;6.67;;
21339;SDS011;10828;47.064;15.422;2022-09-25T03:53:44;11.03;;;7.30;;
21339;SDS011;10828;47.064;15.422;2022-09-25T03:56:13;16.90;;;7.57;;
21339;SDS011;10828;47.064;15.422;2022-09-25T03:58:39;12.37;;;7.10;;
21339;SDS011;10828;47.064;15.422;2022-09-25T04:01:05;14.60;;;8.10;;
21339;SDS011;10828;47.064;15.422;2022-09-25T04:03:34;14.10;;;7.07;;
21339;SDS011;10828;47.064;15.422;2022-09-25T04:06:00;13.30;;;7.00;;
21339;SDS011;10828;47.064;15.422;2022-09-25T04:08:29;12.03;;;6.93;;
21339;SDS011;10828;47.064;15.422;2022-09-25T04:10:56;12.43;;;6.77;;
21339;SDS011;10828;47.064;15.422;2022-09-25T04:13:26;12.00;;;6.20;;
21339;SDS011;10828;47.064;15.422;2022-09-25T04:15:54;13.60;;;7.20;;
21339;SDS011;10828;47.064;15.422;2022-09-25T04:18:23;11.77;;;6.77;;
21339;SDS011;10828;47.064;15.422;2022-09-25T04:20:51;13.93;;;6.67;;
21339;SDS011;10828;47.064;15.422;2022-09-25T04:23:17;13.70;;;6.90;;
21339;SDS011;10828;47.064;15.422;2022-09-25T04:25:44;12.67;;;7.00;;
21339;SDS011;10828;47.064;15.422;2022-09-25T04:28:10;12.50;;;6.70;;
21339;SDS011;10828;47.064;15.422;2022-09-25T04:30:36;11.93;;;6.60;;
21339;SDS011;10828;47.064;15.422;2022-09-25T04:33:03;12.17;;;6.07;;
21339;SDS011;10828;47.064;15.422;2022-09-25T04:35:49;12.77;;;6.70;;
21339;SDS011;10828;47.064;15.422;2022-09-25T04:38:15;13.73;;;6.60;;
21339;SDS011;10828;47.064;15.422;2022-09-25T04:40:45;9.63;;;6.33;;
21339;SDS011;10828;47.064;15.422;2022-09-25T04:43:11;14.27;;;6.67;;
21339;SDS011;10828;47.064;15.422;2022-09-25T04:45:37;12.63;;;7.30;;
21339;SDS011;10828;47.064;15.422;2022-09-25T04:48:05;11.00;;;6.13;;
21339;SDS011;10828;47.064;15.422;2022-09-25T04:50:33;10.50;;;6.20;;
21339;SDS011;10828;47.064;15.422;2022-09-25T04:55:46;11.50;;;6.57;;
21339;SDS011;10828;47.064;15.422;2022-09-25T04:58:20;14.27;;;6.40;;
21339;SDS011;10828;47.064;15.422;2022-09-25T05:00:46;11.43;;;6.87;;
21339;SDS011;10828;47.064;15.422;2022-09-25T05:03:14;10.80;;;6.47;;
21339;SDS011;10828;47.064;15.422;2022-09-25T05:05:46;11.13;;;7.13;;
21339;SDS011;10828;47.064;15.422;2022-09-25T05:08:15;14.73;;;7.00;;
21339;SDS011;10828;47.064;15.422;2022-09-25T05:10:42;12.03;;;6.83;;
21339;SDS011;10828;47.064;15.422;2022-09-25T05:13:10;16.87;;;7.27;;
21339;SDS011;10828;47.064;15.422;2022-09-25T05:15:37;10.67;;;6.57;;
21339;SDS011;10828;47.064;15.422;2022-09-25T05:18:10;13.47;;;7.20;;
21339;SDS011;10828;47.064;15.422;2022-09-25T05:20:37;13.77;;;7.10;;
21339;SDS011;10828;47.064;15.422;2022-09-25T05:23:04;11.07;;;6.67;;
21339;SDS011;10828;47.064;15.422;2022-09-25T05:25:31;14.97;;;7.10;;
21339;SDS011;10828;47.064;15.422;2022-09-25T05:27:58;12.87;;;7.13;;
21339;SDS011;10828;47.064;15.422;2022-09-25T05:30:27;13.93;;;7.00;;
21339;SDS011;10828;47.064;15.422;2022-09-25T05:32:55;11.80;;;7.13;;
21339;SDS011;10828;47.064;15.422;2022-09-25T05:35:27;13.67;;;7.50;;
21339;SDS011;10828;47.064;15.422;2022-09-25T05:37:53;13.40;;;7.17;;
21339;SDS011;10828;47.064;15.422;2022-09-25T05:40:21;12.00;;;7.23;;
21339;SDS011;10828;47.064;15.422;2022-09-25T05:42:48;12.40;;;7.23;;
21339;SDS011;10828;47.064;15.422;2022-09-25T05:45:16;14.00;;;7.90;;
21339;SDS011;10828;47.064;15.422;2022-09-25T05:48:17;15.97;;;7.80;;
21339;SDS011;10828;47.064;15.422;2022-09-25T05:50:36;13.73;;;7.37;;
21339;SDS011;10828;47.064;15.422;2022-09-25T05:53:03;12.20;;;7.43;;
21339;SDS011;10828;47.064;15.422;2022-09-25T05:55:30;13.13;;;7.70;;
21339;SDS011;10828;47.064;15.422;2022-09-25T05:58:02;13.33;;;6.97;;
21339;SDS011;10828;47.064;15.422;2022-09-25T06:00:30;12.33;;;8.00;;
21339;SDS011;10828;47.064;15.422;2022-09-25T06:02:57;11.53;;;7.40;;
21339;SDS011;10828;47.064;15.422;2022-09-25T06:05:23;14.87;;;8.13;;
21339;SDS011;10828;47.064;15.422;2022-09-25T06:07:53;13.27;;;7.60;;
21339;SDS011;10828;47.064;15.422;2022-09-25T06:10:19;12.87;;;7.93;;
21339;SDS011;10828;47.064;15.422;2022-09-25T06:12:47;15.17;;;8.47;;
21339;SDS011;10828;47.064;15.422;2022-09-25T06:15:16;14.80;;;8.70;;
21339;SDS011;10828;47.064;15.422;2022-09-25T06:17:49;13.80;;;8.07;;
21339;SDS011;10828;47.064;15.422;2022-09-25T06:20:17;18.00;;;8.00;;
21339;SDS011;10828;47.064;15.422;2022-09-25T06:22:55;20.70;;;8.27;;
21339;SDS011;10828;47.064;15.422;2022-09-25T06:25:21;16.13;;;8.57;;
21339;SDS011;10828;47.064;15.422;2022-09-25T06:27:53;13.07;;;7.60;;
21339;SDS011;10828;47.064;15.422;2022-09-25T06:30:19;16.10;;;8.23;;
21339;SDS011;10828;47.064;15.422;2022-09-25T06:32:47;13.83;;;8.03;;
21339;SDS011;10828;47.064;15.422;2022-09-25T06:35:16;16.73;;;8.27;;
21339;SDS011;10828;47.064;15.422;2022-09-25T06:37:42;16.97;;;8.37;;
21339;SDS011;10828;47.064;15.422;2022-09-25T06:40:08;13.87;;;8.10;;
21339;SDS011;10828;47.064;15.422;2022-09-25T06:42:34;13.17;;;8.00;;
21339;SDS011;10828;47.064;15.422;2022-09-25T06:45:00;13.63;;;7.97;;
21339;SDS011;10828;47.064;15.422;2022-09-25T06:47:27;20.47;;;8.83;;
21339;SDS011;10828;47.064;15.422;2022-09-25T06:49:53;13.80;;;8.50;;
21339;SDS011;10828;47.064;15.422;2022-09-25T06:52:19;15.27;;;8.60;;
21339;SDS011;10828;47.064;15.422;2022-09-25T06:54:46;15.60;;;8.47;;
21339;SDS011;10828;47.064;15.422;2022-09-25T06:57:13;16.87;;;8.40;;
21339;SDS011;10828;47.064;15.422;2022-09-25T06:59:41;12.60;;;8.13;;
21339;SDS011;10828;47.064;15.422;2022-09-25T07:02:07;18.10;;;7.90;;
21339;SDS011;10828;47.064;15.422;2022-09-25T07:04:53;15.77;;;8.37;;
21339;SDS011;10828;47.064;15.422;2022-09-25T07:07:19;17.77;;;8.57;;
21339;SDS011;10828;47.064;15.422;2022-09-25T07:09:48;17.63;;;8.57;;
21339;SDS011;10828;47.064;15.422;2022-09-25T07:12:14;16.43;;;8.43;;
21339;SDS011;10828;47.064;15.422;2022-09-25T07:14:47;14.90;;;8.23;;
21339;SDS011;10828;47.064;15.422;2022-09-25T07:17:13;17.03;;;8.87;;
21339;SDS011;10828;47.064;15.422;2022-09-25T07:19:41;17.60;;;9.70;;
21339;SDS011;10828;47.064;15.422;2022-09-25T07:22:08;16.57;;;8.93;;
21339;SDS011;10828;47.064;15.422;2022-09-25T07:24:37;20.17;;;9.67;;
21339;SDS011;10828;47.064;15.422;2022-09-25T07:27:09;17.80;;;9.10;;
21339;SDS011;10828;47.064;15.422;2022-09-25T07:29:36;17.10;;;9.00;;
21339;SDS011;10828;47.064;15.422;2022-09-25T07:32:02;16.53;;;8.67;;
21339;SDS011;10828;47.064;15.422;2022-09-25T07:34:29;18.97;;;9.33;;
21339;SDS011;10828;47.064;15.422;2022-09-25T07:36:55;22.73;;;9.83;;
21339;SDS011;10828;47.064;15.422;2022-09-25T07:39:21;16.77;;;9.13;;
21339;SDS011;10828;47.064;15.422;2022-09-25T07:41:55;17.73;;;9.67;;
21339;SDS011;10828;47.064;15.422;2022-09-25T07:44:21;17.53;;;9.40;;
21339;SDS011;10828;47.064;15.422;2022-09-25T07:46:49;18.70;;;10.13;;
21339;SDS011;10828;47.064;15.422;2022-09-25T07:49:15;21.43;;;10.97;;
21339;SDS011;10828;47.064;15.422;2022-09-25T07:51:42;20.77;;;11.40;;
21339;SDS011;10828;47.064;15.422;2022-09-25T07:54:11;18.63;;;11.37;;
21339;SDS011;10828;47.064;15.422;2022-09-25T07:56:37;21.07;;;10.60;;
21339;SDS011;10828;47.064;15.422;2022-09-25T07:59:04;19.67;;;10.93;;
21339;SDS011;10828;47.064;15.422;2022-09-25T08:01:30;21.97;;;11.20;;
21339;SDS011;10828;47.064;15.422;2022-09-25T08:03:56;20.37;;;10.17;;
21339;SDS011;10828;47.064;15.422;2022-09-25T08:06:23;17.17;;;10.20;;
21339;SDS011;10828;47.064;15.422;2022-09-25T08:08:50;20.53;;;11.20;;
21339;SDS011;10828;47.064;15.422;2022-09-25T08:11:16;20.73;;;10.30;;
21339;SDS011;10828;47.064;15.422;2022-09-25T08:13:43;18.77;;;10.97;;
21339;SDS011;10828;47.064;15.422;2022-09-25T08:16:10;19.43;;;10.27;;
21339;SDS011;10828;47.064;15.422;2022-09-25T08:18:38;21.87;;;10.93;;
21339;SDS011;10828;47.064;15.422;2022-09-25T08:21:09;25.63;;;12.67;;
21339;SDS011;10828;47.064;15.422;2022-09-25T08:23:38;19.23;;;11.33;;
21339;SDS011;10828;47.064;15.422;2022-09-25T08:26:05;20.73;;;11.73;;
21339;SDS011;10828;47.064;15.422;2022-09-25T08:28:31;22.90;;;12.07;;
21339;SDS011;10828;47.064;15.422;2022-09-25T08:30:58;20.53;;;12.03;;
21339;SDS011;10828;47.064;15.422;2022-09-25T08:33:25;22.57;;;11.67;;
21339;SDS011;10828;47.064;15.422;2022-09-25T08:35:55;25.03;;;13.20;;
21339;SDS011;10828;47.064;15.422;2022-09-25T08:38:22;21.00;;;12.27;;
21339;SDS011;10828;47.064;15.422;2022-09-25T08:43:31;23.50;;;12.40;;
21339;SDS011;10828;47.064;15.422;2022-09-25T08:45:59;23.27;;;13.20;;
21339;SDS011;10828;47.064;15.422;2022-09-25T08:51:42;24.63;;;12.00;;
21339;SDS011;10828;47.064;15.422;2022-09-25T08:54:17;27.47;;;12.13;;
21339;SDS011;10828;47.064;15.422;2022-09-25T08:56:44;20.90;;;11.90;;
21339;SDS011;10828;47.064;15.422;2022-09-25T08:59:18;25.43;;;12.33;;
21339;SDS011;10828;47.064;15.422;2022-09-25T09:01:49;27.13;;;12.70;;
21339;SDS011;10828;47.064;15.422;2022-09-25T09:04:33;23.60;;;12.77;;
21339;SDS011;10828;47.064;15.422;2022-09-25T09:07:08;24.80;;;12.70;;
21339;SDS011;10828;47.064;15.422;2022-09-25T09:09:39;25.50;;;11.97;;
21339;SDS011;10828;47.064;15.422;2022-09-25T09:12:10;21.47;;;12.10;;
21339;SDS011;10828;47.064;15.422;2022-09-25T09:14:39;23.30;;;11.87;;
21339;SDS011;10828;47.064;15.422;2022-09-25T09:17:28;23.10;;;11.17;;
21339;SDS011;10828;47.064;15.422;2022-09-25T09:19:58;19.07;;;10.10;;
21339;SDS011;10828;47.064;15.422;2022-09-25T09:22:28;27.57;;;11.80;;
21339;SDS011;10828;47.064;15.422;2022-09-25T09:25:05;22.23;;;11.40;;
21339;SDS011;10828;47.064;15.422;2022-09-25T09:27:49;25.03;;;12.00;;
21339;SDS011;10828;47.064;15.422;2022-09-25T09:38:13;19.33;;;10.70;;
21339;SDS011;10828;47.064;15.422;2022-09-25T09:43:31;17.20;;;10.40;;
21339;SDS011;10828;47.064;15.422;2022-09-25T09:46:15;19.87;;;11.47;;
21339;SDS011;10828;47.064;15.422;2022-09-25T09:48:54;19.57;;;11.07;;
21339;SDS011;10828;47.064;15.422;2022-09-25T09:51:25;20.17;;;10.37;;
21339;SDS011;10828;47.064;15.422;2022-09-25T09:53:52;21.77;;;10.90;;
21339;SDS011;10828;47.064;15.422;2022-09-25T09:56:27;21.50;;;10.87;;
21339;SDS011;10828;47.064;15.422;2022-09-25T09:59:10;19.37;;;11.10;;
21339;SDS011;10828;47.064;15.422;2022-09-25T10:01:39;22.83;;;11.80;;
21339;SDS011;10828;47.064;15.422;2022-09-25T10:04:16;20.73;;;12.10;;
21339;SDS011;10828;47.064;15.422;2022-09-25T10:06:45;18.47;;;10.80;;
21339;SDS011;10828;47.064;15.422;2022-09-25T10:09:13;21.77;;;10.97;;
21339;SDS011;10828;47.064;15.422;2022-09-25T10:11:44;17.10;;;10.63;;
21339;SDS011;10828;47.064;15.422;2022-09-25T10:14:17;16.97;;;10.07;;
21339;SDS011;10828;47.064;15.422;2022-09-25T10:16:47;18.37;;;10.27;;
21339;SDS011;10828;47.064;15.422;2022-09-25T10:21:51;17.47;;;10.10;;
21339;SDS011;10828;47.064;15.422;2022-09-25T10:27:27;17.60;;;10.50;;
21339;SDS011;10828;47.064;15.422;2022-09-25T10:35:19;15.00;;;9.30;;
21339;SDS011;10828;47.064;15.422;2022-09-25T10:37:50;16.70;;;8.97;;
21339;SDS011;10828;47.064;15.422;2022-09-25T10:40:25;15.33;;;8.17;;
21339;SDS011;10828;47.064;15.422;2022-09-25T10:45:45;17.83;;;9.30;;
21339;SDS011;10828;47.064;15.422;2022-09-25T10:48:29;16.67;;;8.83;;
21339;SDS011;10828;47.064;15.422;2022-09-25T10:51:16;16.07;;;8.87;;
21339;SDS011;10828;47.064;15.422;2022-09-25T10:53:45;13.60;;;8.17;;
21339;SDS011;10828;47.064;15.422;2022-09-25T10:56:21;15.43;;;9.17;;
21339;SDS011;10828;47.064;15.422;2022-09-25T10:58:52;18.30;;;9.30;;
21339;SDS011;10828;47.064;15.422;2022-09-25T11:01:21;17.87;;;10.07;;
21339;SDS011;10828;47.064;15.422;2022-09-25T11:04:04;16.13;;;9.53;;
21339;SDS011;10828;47.064;15.422;2022-09-25T11:06:33;14.20;;;8.53;;
21339;SDS011;10828;47.064;15.422;2022-09-25T11:09:14;18.13;;;9.83;;
21339;SDS011;10828;47.064;15.422;2022-09-25T11:11:41;14.60;;;9.23;;
21339;SDS011;10828;47.064;15.422;2022-09-25T11:14:45;17.10;;;9.23;;
21339;SDS011;10828;47.064;15.422;2022-09-25T11:17:05;17.20;;;9.80;;
21339;SDS011;10828;47.064;15.422;2022-09-25T11:19:36;16.17;;;9.93;;
21339;SDS011;10828;47.064;15.422;2022-09-25T11:25:00;13.60;;;8.53;;
21339;SDS011;10828;47.064;15.422;2022-09-25T11:30:16;14.13;;;8.63;;
21339;SDS011;10828;47.064;15.422;2022-09-25T11:38:11;15.63;;;7.13;;
21339;SDS011;10828;47.064;15.422;2022-09-25T11:40:59;11.87;;;7.33;;
21339;SDS011;10828;47.064;15.422;2022-09-25T11:51:31;13.43;;;7.97;;
21339;SDS011;10828;47.064;15.422;2022-09-25T11:56:59;10.73;;;7.13;;
21339;SDS011;10828;47.064;15.422;2022-09-25T12:07:29;11.53;;;7.67;;
21339;SDS011;10828;47.064;15.422;2022-09-25T12:13:11;14.47;;;7.50;;
21339;SDS011;10828;47.064;15.422;2022-09-25T12:20:48;11.87;;;7.20;;
21339;SDS011;10828;47.064;15.422;2022-09-25T12:23:21;12.27;;;7.63;;
21339;SDS011;10828;47.064;15.422;2022-09-25T12:36:12;15.23;;;7.47;;
21339;SDS011;10828;47.064;15.422;2022-09-25T12:46:22;13.93;;;6.93;;
21339;SDS011;10828;47.064;15.422;2022-09-25T12:48:53;13.00;;;6.97;;
21339;SDS011;10828;47.064;15.422;2022-09-25T12:51:35;11.67;;;7.60;;
21339;SDS011;10828;47.064;15.422;2022-09-25T12:59:41;12.17;;;7.70;;
21339;SDS011;10828;47.064;15.422;2022-09-25T13:02:29;10.40;;;6.70;;
21339;SDS011;10828;47.064;15.422;2022-09-25T13:10:30;12.27;;;6.77;;
21339;SDS011;10828;47.064;15.422;2022-09-25T13:12:59;11.87;;;6.60;;
21339;SDS011;10828;47.064;15.422;2022-09-25T13:15:34;11.13;;;6.10;;
21339;SDS011;10828;47.064;15.422;2022-09-25T13:18:02;8.87;;;5.50;;
21339;SDS011;10828;47.064;15.422;2022-09-25T13:25:48;14.73;;;7.43;;
21339;SDS011;10828;47.064;15.422;2022-09-25T13:28:20;12.20;;;6.07;;
21339;SDS011;10828;47.064;15.422;2022-09-25T13:33:22;10.87;;;6.60;;
21339;SDS011;10828;47.064;15.422;2022-09-25T13:35:49;9.73;;;6.40;;
21339;SDS011;10828;47.064;15.422;2022-09-25T13:38:27;11.20;;;6.07;;
21339;SDS011;10828;47.064;15.422;2022-09-25T13:41:12;12.20;;;6.20;;
21339;SDS011;10828;47.064;15.422;2022-09-25T13:43:39;11.20;;;5.73;;
21339;SDS011;10828;47.064;15.422;2022-09-25T13:48:46;9.07;;;4.90;;
21339;SDS011;10828;47.064;15.422;2022-09-25T14:04:08;8.03;;;4.37;;
21339;SDS011;10828;47.064;15.422;2022-09-25T14:06:35;8.30;;;4.33;;
21339;SDS011;10828;47.064;15.422;2022-09-25T14:09:19;6.90;;;3.80;;
21339;SDS011;10828;47.064;15.422;2022-09-25T14:12:00;8.60;;;4.57;;
21339;SDS011;10828;47.064;15.422;2022-09-25T14:14:30;7.53;;;4.50;;
21339;SDS011;10828;47.064;15.422;2022-09-25T14:16:58;7.13;;;4.50;;
21339;SDS011;10828;47.064;15.422;2022-09-25T14:19:26;7.43;;;4.50;;
21339;SDS011;10828;47.064;15.422;2022-09-25T14:21:53;6.97;;;4.07;;
21339;SDS011;10828;47.064;15.422;2022-09-25T14:24:20;7.00;;;4.17;;
21339;SDS011;10828;47.064;15.422;2022-09-25T14:26:47;8.67;;;4.33;;
21339;SDS011;10828;47.064;15.422;2022-09-25T14:29:38;7.00;;;4.17;;
21339;SDS011;10828;47.064;15.422;2022-09-25T14:35:02;6.60;;;4.00;;
21339;SDS011;10828;47.064;15.422;2022-09-25T14:43:03;7.27;;;3.57;;
21339;SDS011;10828;47.064;15.422;2022-09-25T14:48:21;3.93;;;2.30;;
21339;SDS011;10828;47.064;15.422;2022-09-25T14:50:50;8.37;;;2.60;;
21339;SDS011;10828;47.064;15.422;2022-09-25T14:53:24;4.47;;;2.80;;
21339;SDS011;10828;47.064;15.422;2022-09-25T14:56:00;5.17;;;2.13;;
21339;SDS011;10828;47.064;15.422;2022-09-25T14:58:30;4.57;;;2.50;;
21339;SDS011;10828;47.064;15.422;2022-09-25T15:01:43;4.43;;;2.70;;
21339;SDS011;10828;47.064;15.422;2022-09-25T15:03:45;5.80;;;3.20;;
21339;SDS011;10828;47.064;15.422;2022-09-25T15:06:23;7.27;;;3.20;;
21339;SDS011;10828;47.064;15.422;2022-09-25T15:08:52;7.80;;;3.40;;
21339;SDS011;10828;47.064;15.422;2022-09-25T15:11:20;5.37;;;3.10;;
21339;SDS011;10828;47.064;15.422;2022-09-25T15:13:48;5.37;;;3.10;;
21339;SDS011;10828;47.064;15.422;2022-09-25T15:16:20;9.00;;;3.73;;
21339;SDS011;10828;47.064;15.422;2022-09-25T15:19:12;5.57;;;2.87;;
21339;SDS011;10828;47.064;15.422;2022-09-25T15:21:49;3.93;;;2.23;;
21339;SDS011;10828;47.064;15.422;2022-09-25T15:24:22;6.13;;;2.30;;
21339;SDS011;10828;47.064;15.422;2022-09-25T15:26:56;3.93;;;2.50;;
21339;SDS011;10828;47.064;15.422;2022-09-25T15:29:28;5.87;;;2.63;;
21339;SDS011;10828;47.064;15.422;2022-09-25T15:31:56;4.40;;;2.40;;
21339;SDS011;10828;47.064;15.422;2022-09-25T15:34:25;6.37;;;2.73;;
21339;SDS011;10828;47.064;15.422;2022-09-25T15:39:40;6.67;;;3.50;;
21339;SDS011;10828;47.064;15.422;2022-09-25T15:42:07;5.10;;;2.73;;
21339;SDS011;10828;47.064;15.422;2022-09-25T15:44:37;12.57;;;3.40;;
21339;SDS011;10828;47.064;15.422;2022-09-25T15:47:04;7.93;;;3.43;;
21339;SDS011;10828;47.064;15.422;2022-09-25T15:49:39;5.90;;;3.30;;
21339;SDS011;10828;47.064;15.422;2022-09-25T15:52:26;7.17;;;4.13;;
21339;SDS011;10828;47.064;15.422;2022-09-25T15:55:01;6.53;;;4.00;;
21339;SDS011;10828;47.064;15.422;2022-09-25T15:57:29;11.27;;;4.30;;
21339;SDS011;10828;47.064;15.422;2022-09-25T16:00:06;10.13;;;5.33;;
21339;SDS011;10828;47.064;15.422;2022-09-25T16:03:05;7.77;;;4.70;;
21339;SDS011;10828;47.064;15.422;2022-09-25T16:05:56;8.07;;;4.70;;
21339;SDS011;10828;47.064;15.422;2022-09-25T16:08:34;10.17;;;5.07;;
21339;SDS011;10828;47.064;15.422;2022-09-25T16:13:50;9.67;;;5.40;;
21339;SDS011;10828;47.064;15.422;2022-09-25T16:18:48;9.83;;;5.20;;
21339;SDS011;10828;47.064;15.422;2022-09-25T16:21:21;7.83;;;5.00;;
21339;SDS011;10828;47.064;15.422;2022-09-25T16:23:50;8.67;;;5.27;;
21339;SDS011;10828;47.064;15.422;2022-09-25T16:26:19;9.67;;;5.30;;
21339;SDS011;10828;47.064;15.422;2022-09-25T16:31:19;9.33;;;5.40;;
21339;SDS011;10828;47.064;15.422;2022-09-25T16:33:50;11.57;;;5.70;;
21339;SDS011;10828;47.064;15.422;2022-09-25T16:36:21;9.33;;;5.40;;
21339;SDS011;10828;47.064;15.422;2022-09-25T16:39:09;8.83;;;5.00;;
21339;SDS011;10828;47.064;15.422;2022-09-25T16:41:48;12.83;;;5.70;;
21339;SDS011;10828;47.064;15.422;2022-09-25T16:44:21;10.33;;;5.67;;
21339;SDS011;10828;47.064;15.422;2022-09-25T16:49:17;15.77;;;6.20;;
21339;SDS011;10828;47.064;15.422;2022-09-25T16:51:49;10.43;;;5.50;;
21339;SDS011;10828;47.064;15.422;2022-09-25T16:54:17;8.73;;;6.03;;
21339;SDS011;10828;47.064;15.422;2022-09-25T16:56:46;10.10;;;6.10;;
21339;SDS011;10828;47.064;15.422;2022-09-25T16:59:17;11.40;;;6.40;;
21339;SDS011;10828;47.064;15.422;2022-09-25T17:01:45;14.50;;;6.23;;
21339;SDS011;10828;47.064;15.422;2022-09-25T17:04:12;11.63;;;6.60;;
21339;SDS011;10828;47.064;15.422;2022-09-25T17:06:42;11.23;;;6.40;;
21339;SDS011;10828;47.064;15.422;2022-09-25T17:09:15;11.20;;;5.83;;
21339;SDS011;10828;47.064;15.422;2022-09-25T17:11:43;11.83;;;6.27;;
21339;SDS011;10828;47.064;15.422;2022-09-25T17:14:22;11.33;;;7.60;;
21339;SDS011;10828;47.064;15.422;2022-09-25T17:16:50;10.33;;;6.80;;
21339;SDS011;10828;47.064;15.422;2022-09-25T17:19:20;11.07;;;6.47;;
21339;SDS011;10828;47.064;15.422;2022-09-25T17:21:49;10.13;;;6.10;;
21339;SDS011;10828;47.064;15.422;2022-09-25T17:24:21;13.03;;;6.63;;
21339;SDS011;10828;47.064;15.422;2022-09-25T17:26:49;12.10;;;6.43;;
21339;SDS011;10828;47.064;15.422;2022-09-25T17:29:28;10.77;;;6.77;;
21339;SDS011;10828;47.064;15.422;2022-09-25T17:32:00;11.87;;;7.03;;
21339;SDS011;10828;47.064;15.422;2022-09-25T17:34:28;15.37;;;7.97;;
21339;SDS011;10828;47.064;15.422;2022-09-25T17:36:55;10.40;;;6.27;;
21339;SDS011;10828;47.064;15.422;2022-09-25T17:39:22;11.20;;;6.77;;
21339;SDS011;10828;47.064;15.422;2022-09-25T17:41:50;10.47;;;6.40;;
21339;SDS011;10828;47.064;15.422;2022-09-25T17:44:18;12.63;;;7.03;;
21339;SDS011;10828;47.064;15.422;2022-09-25T17:46:50;11.77;;;7.00;;